Time;durP1;ratioP1;P1;durP2;ratioP2;P2;SDS_P1;SDS_P2;PMS_P1;PMS_P2;Temp;Humidity;BMP_temperature;BMP_pressure;BME280_temperature;BME280_humidity;BME280_pressure;Samples;Min_cycle;Max_cycle;Signal;HPM_P1;HPM_P2
2023/06/22 00:01:48;;;;;;;7.75;6.72;;;;;;;22.57;100.00;100341.16;4932897;28;20039;-71
2023/06/22 00:04:15;;;;;;;8.57;7.22;;;;;;;22.60;100.00;100352.53;4925952;29;20039;-71
2023/06/22 00:06:42;;;;;;;7.85;7.15;;;;;;;22.61;100.00;100364.16;4950471;28;20047;-70
2023/06/22 00:09:10;;;;;;;8.05;7.25;;;;;;;22.60;100.00;100390.31;4950610;28;20047;-70
2023/06/22 00:11:38;;;;;;;8.02;7.22;;;;;;;22.57;100.00;100408.66;4947574;28;20141;-71
2023/06/22 00:14:05;;;;;;;7.97;6.53;;;;;;;22.52;100.00;100422.56;4942163;28;20044;-69
2023/06/22 00:16:32;;;;;;;7.55;6.50;;;;;;;22.50;100.00;100432.69;4915299;29;20055;-70
2023/06/22 00:19:01;;;;;;;7.50;6.80;;;;;;;22.53;100.00;100439.63;4932380;29;20110;-71
2023/06/22 00:21:28;;;;;;;7.38;6.38;;;;;;;22.44;100.00;100433.28;4946481;28;20065;-70
2023/06/22 00:23:55;;;;;;;9.20;7.30;;;;;;;22.51;100.00;100447.84;4941916;28;20055;-70
2023/06/22 00:26:21;;;;;;;6.88;6.25;;;;;;;22.46;100.00;100450.16;4930394;29;20516;-70
2023/06/22 00:28:48;;;;;;;9.13;6.57;;;;;;;22.51;100.00;100477.53;4928506;28;20192;-71
2023/06/22 00:31:15;;;;;;;7.80;7.07;;;;;;;22.44;100.00;100473.75;4915066;29;20158;-70
2023/06/22 00:33:42;;;;;;;7.07;6.38;;;;;;;22.43;100.00;100496.31;4943179;28;20122;-70
2023/06/22 00:36:12;;;;;;;7.47;6.68;;;;;;;22.37;100.00;100500.44;4931694;29;20154;-70
2023/06/22 00:38:40;;;;;;;12.40;5.97;;;;;;;22.38;100.00;100517.47;4946461;28;20047;-70
2023/06/22 00:41:07;;;;;;;7.15;6.45;;;;;;;22.42;100.00;100520.75;4926844;28;20059;-70
2023/06/22 00:43:34;;;;;;;7.43;6.65;;;;;;;22.40;100.00;100520.91;4942499;28;20143;-71
2023/06/22 00:46:05;;;;;;;7.55;6.32;;;;;;;22.38;100.00;100533.69;4928392;29;20069;-70
2023/06/22 00:48:33;;;;;;;7.72;6.95;;;;;;;22.42;100.00;100539.63;4909396;29;20050;-71
2023/06/22 00:51:01;;;;;;;6.82;6.20;;;;;;;22.45;100.00;100542.91;4930361;29;20055;-71
2023/06/22 00:53:28;;;;;;;7.00;6.30;;;;;;;22.49;100.00;100538.94;4938107;28;20525;-70
2023/06/22 00:55:55;;;;;;;7.32;6.60;;;;;;;22.54;100.00;100552.81;4928717;29;20051;-70
2023/06/22 00:58:22;;;;;;;7.57;6.82;;;;;;;22.61;100.00;100545.88;4946922;28;20106;-70
2023/06/22 01:00:48;;;;;;;6.65;5.95;;;;;;;22.63;100.00;100534.91;4935864;28;20047;-70
2023/06/22 01:03:18;;;;;;;7.53;6.82;;;;;;;22.65;100.00;100523.00;4927192;29;20554;-70
2023/06/22 01:05:49;;;;;;;8.32;6.70;;;;;;;22.70;100.00;100533.31;4949810;28;20047;-70
2023/06/22 01:08:23;;;;;;;7.90;6.20;;;;;;;22.76;100.00;100548.94;4947929;28;20094;-70
2023/06/22 01:11:05;;;;;;;7.90;6.82;;;;;;;22.83;100.00;100568.13;4946528;28;20626;-70
2023/06/22 01:13:38;;;;;;;7.82;6.82;;;;;;;22.77;100.00;100593.03;4939664;28;20200;-71
2023/06/22 01:16:17;;;;;;;8.75;7.45;;;;;;;22.49;100.00;100611.78;4948449;28;20047;-70
2023/06/22 01:18:45;;;;;;;10.57;7.30;;;;;;;22.23;100.00;100632.22;4947779;28;20066;-71
2023/06/22 01:21:17;;;;;;;9.30;8.05;;;;;;;22.08;100.00;100639.03;4929775;29;20413;-70
2023/06/22 01:23:46;;;;;;;11.18;8.38;;;;;;;21.92;100.00;100651.16;4925688;29;20085;-69
2023/06/22 01:26:35;;;;;;;8.68;7.80;;;;;;;21.65;100.00;100659.91;4929653;29;20182;-70
2023/06/22 01:29:04;;;;;;;10.40;8.15;;;;;;;21.51;100.00;100636.03;4942746;28;20079;-71
2023/06/22 01:31:34;;;;;;;13.18;9.40;;;;;;;21.37;100.00;100544.81;4937685;28;20082;-71
2023/06/22 01:34:04;;;;;;;10.00;8.27;;;;;;;21.19;100.00;100463.81;4943059;28;20043;-71
2023/06/22 01:36:33;;;;;;;8.63;7.82;;;;;;;21.01;100.00;100463.56;4928995;28;22253;-72
2023/06/22 01:39:01;;;;;;;11.00;9.30;;;;;;;20.84;100.00;100479.53;4947118;28;20049;-70
2023/06/22 01:41:31;;;;;;;10.85;9.75;;;;;;;20.51;100.00;100435.75;4928781;28;20051;-70
2023/06/22 01:43:59;;;;;;;11.40;9.27;;;;;;;20.49;100.00;100426.97;4917663;29;20078;-70
2023/06/22 01:46:26;;;;;;;10.98;9.80;;;;;;;20.47;100.00;100412.78;4949322;28;20048;-70
2023/06/22 01:48:53;;;;;;;10.95;9.85;;;;;;;20.36;100.00;100399.44;4950267;28;20129;-71
2023/06/22 01:51:20;;;;;;;11.85;10.55;;;;;;;20.33;100.00;100397.00;4947242;28;20043;-70
2023/06/22 01:53:47;;;;;;;13.50;10.40;;;;;;;20.30;100.00;100405.34;4948274;28;20817;-70
2023/06/22 01:56:20;;;;;;;11.15;10.00;;;;;;;20.19;100.00;100425.09;4939648;28;20441;-70
2023/06/22 01:58:56;;;;;;;11.13;10.02;;;;;;;20.26;100.00;100463.06;4951807;28;20059;-70
2023/06/22 02:01:29;;;;;;;13.63;11.82;;;;;;;20.24;100.00;100483.84;4934468;29;20075;-72
2023/06/22 02:04:04;;;;;;;12.73;11.43;;;;;;;20.16;100.00;100489.03;4943169;28;20044;-71
2023/06/22 02:06:37;;;;;;;12.50;11.25;;;;;;;20.14;100.00;100482.94;4942946;28;20047;-71
2023/06/22 02:09:11;;;;;;;12.43;11.23;;;;;;;20.08;100.00;100467.31;4948433;28;20151;-70
2023/06/22 02:11:42;;;;;;;14.02;11.02;;;;;;;20.17;100.00;100472.75;4936095;29;20053;-70
2023/06/22 02:14:09;;;;;;;;;;;;;;;20.20;100.00;100463.56;4930955;29;20046;-71
2023/06/22 02:16:44;;;;;;;11.48;10.38;;;;;;;20.16;100.00;100454.91;4952108;28;19923;-71
2023/06/22 02:19:11;;;;;;;11.68;10.48;;;;;;;20.14;100.00;100456.06;4933690;28;20051;-71
2023/06/22 02:21:38;;;;;;;12.23;10.63;;;;;;;20.14;100.00;100442.63;4930075;29;20111;-71
2023/06/22 02:24:05;;;;;;;12.35;10.50;;;;;;;20.12;100.00;100439.19;4930750;29;20043;-70
2023/06/22 02:26:32;;;;;;;12.60;11.27;;;;;;;20.16;100.00;100435.25;4946219;29;20070;-70
2023/06/22 02:28:59;;;;;;;11.13;10.00;;;;;;;20.14;100.00;100431.88;4934654;29;20066;-70
2023/06/22 02:31:30;;;;;;;11.80;10.73;;;;;;;20.23;100.00;100449.88;4939926;28;20082;-71
2023/06/22 02:34:00;;;;;;;11.48;10.27;;;;;;;20.21;100.00;100444.63;4938502;29;20110;-71
2023/06/22 02:36:30;;;;;;;11.35;10.13;;;;;;;20.22;100.00;100440.97;4951720;28;20134;-73
2023/06/22 02:38:58;;;;;;;13.90;11.13;;;;;;;20.19;100.00;100435.84;4955084;28;20047;-72
2023/06/22 02:41:25;;;;;;;11.40;10.27;;;;;;;20.20;100.00;100436.69;4936661;29;20051;-71
2023/06/22 02:43:52;;;;;;;11.30;10.10;;;;;;;20.25;100.00;100443.38;4948852;28;20070;-70
2023/06/22 02:46:19;;;;;;;11.55;10.10;;;;;;;20.25;100.00;100448.75;4951042;28;20055;-71
2023/06/22 02:48:46;;;;;;;11.50;10.10;;;;;;;20.28;100.00;100453.03;4957760;28;20071;-71
2023/06/22 02:51:14;;;;;;;11.98;10.73;;;;;;;20.36;100.00;100460.41;4952774;28;20079;-71
2023/06/22 02:53:44;;;;;;;12.60;11.25;;;;;;;20.26;100.00;100458.53;4932051;28;20130;-70
2023/06/22 02:56:12;;;;;;;12.80;10.38;;;;;;;20.27;100.00;100465.63;4929788;29;20104;-70
2023/06/22 02:58:39;;;;;;;12.93;10.98;;;;;;;20.22;100.00;100457.09;4948873;28;20335;-70
2023/06/22 03:01:06;;;;;;;11.68;9.77;;;;;;;20.23;100.00;100441.81;4948393;28;20047;-69
2023/06/22 03:03:33;;;;;;;10.93;9.85;;;;;;;20.25;100.00;100421.03;4944373;28;20061;-72
2023/06/22 03:06:03;;;;;;;11.50;10.35;;;;;;;20.25;100.00;100429.09;4944227;28;20039;-72
2023/06/22 03:08:30;;;;;;;12.32;10.35;;;;;;;20.20;100.00;100425.94;4937468;28;20051;-70
2023/06/22 03:10:56;;;;;;;14.35;10.15;;;;;;;20.12;100.00;100421.25;4929191;29;20567;-71
2023/06/22 03:13:24;;;;;;;11.57;10.40;;;;;;;20.13;100.00;100440.91;4934112;28;20501;-71
2023/06/22 03:15:50;;;;;;;12.40;11.10;;;;;;;20.09;100.00;100434.09;4925631;29;20771;-71
2023/06/22 03:18:17;;;;;;;11.52;10.27;;;;;;;20.15;100.00;100433.53;4950539;28;20502;-70
2023/06/22 03:20:44;;;;;;;11.07;10.05;;;;;;;20.16;100.00;100413.75;4951147;28;20051;-71
2023/06/22 03:23:11;;;;;;;11.38;10.05;;;;;;;20.16;100.00;100416.44;4935841;29;20425;-71
2023/06/22 03:25:39;;;;;;;11.85;10.65;;;;;;;20.18;100.00;100414.47;4927885;29;20519;-71
2023/06/22 03:28:10;;;;;;;11.70;10.23;;;;;;;20.20;100.00;100416.03;4929601;29;20049;-70
2023/06/22 03:30:37;;;;;;;11.63;10.43;;;;;;;20.25;100.00;100419.19;4932042;29;20065;-72
2023/06/22 03:33:03;;;;;;;12.63;10.15;;;;;;;20.18;100.00;100409.09;4949253;28;20047;-71
2023/06/22 03:35:31;;;;;;;12.65;11.45;;;;;;;20.22;100.00;100421.28;4943017;28;20047;-71
2023/06/22 03:37:59;;;;;;;11.27;10.23;;;;;;;20.18;100.00;100414.47;4949341;28;20050;-71
2023/06/22 03:40:28;;;;;;;13.30;10.95;;;;;;;20.17;100.00;100408.22;4934757;28;20043;-70
2023/06/22 03:42:55;;;;;;;14.00;10.83;;;;;;;20.27;100.00;100411.00;4947262;28;20492;-70
2023/06/22 03:45:22;;;;;;;12.18;11.00;;;;;;;20.33;100.00;100423.88;4941947;28;20474;-71
2023/06/22 03:47:49;;;;;;;12.23;10.93;;;;;;;20.30;100.00;100411.53;4932220;28;20139;-70
2023/06/22 03:50:20;;;;;;;12.60;11.30;;;;;;;20.27;100.00;100411.00;4947589;28;20509;-71
2023/06/22 03:52:48;;;;;;;15.75;10.95;;;;;;;20.24;100.00;100404.03;4949108;28;20047;-71
2023/06/22 03:55:15;;;;;;;11.93;10.73;;;;;;;20.29;100.00;100411.72;4942941;28;21493;-70
2023/06/22 03:57:41;;;;;;;14.00;11.30;;;;;;;20.23;100.00;100410.41;4932960;29;20150;-71
2023/06/22 04:00:10;;;;;;;11.85;10.68;;;;;;;20.23;100.00;100404.16;4924170;29;20513;-70
2023/06/22 04:02:37;;;;;;;12.23;10.82;;;;;;;20.33;100.00;100413.97;4920057;28;20058;-71
2023/06/22 04:05:04;;;;;;;12.02;10.80;;;;;;;20.40;100.00;100424.25;4926591;29;20049;-70
2023/06/22 04:07:31;;;;;;;10.98;9.88;;;;;;;20.46;100.00;100413.78;4950692;28;20483;-70
2023/06/22 04:09:58;;;;;;;11.85;10.63;;;;;;;20.47;100.00;100410.09;4909960;29;20055;-70
2023/06/22 04:12:25;;;;;;;11.70;10.57;;;;;;;20.46;100.00;100418.34;4934570;29;20051;-70
2023/06/22 04:14:52;;;;;;;12.30;11.00;;;;;;;20.50;100.00;100423.28;4944393;28;20054;-71
2023/06/22 04:17:19;;;;;;;11.70;10.45;;;;;;;20.47;100.00;100428.94;4941809;28;20054;-70
2023/06/22 04:19:45;;;;;;;11.75;10.55;;;;;;;20.48;100.00;100419.88;4946062;28;21803;-70
2023/06/22 04:22:12;;;;;;;13.25;10.55;;;;;;;20.48;100.00;100430.63;4934619;29;20059;-70
2023/06/22 04:24:39;;;;;;;11.32;10.23;;;;;;;20.42;100.00;100419.59;4926868;29;20173;-69
2023/06/22 04:27:06;;;;;;;12.02;10.82;;;;;;;20.50;100.00;100428.66;4946611;28;20146;-71
2023/06/22 04:29:32;;;;;;;12.20;10.10;;;;;;;20.49;100.00;100432.34;4933671;29;20130;-70
2023/06/22 04:32:02;;;;;;;12.60;11.30;;;;;;;20.50;100.00;100423.28;4947718;28;20083;-70
2023/06/22 04:34:31;;;;;;;12.57;11.27;;;;;;;20.56;100.00;100424.59;4941216;28;20055;-70
2023/06/22 04:36:58;;;;;;;12.32;11.13;;;;;;;20.61;100.00;100427.75;4929375;29;20565;-70
2023/06/22 04:39:27;;;;;;;11.70;10.48;;;;;;;20.62;100.00;100427.59;4949651;28;20514;-70
2023/06/22 04:41:54;;;;;;;13.00;11.65;;;;;;;20.64;100.00;100431.00;4946238;28;20394;-70
2023/06/22 04:44:24;;;;;;;11.85;10.65;;;;;;;20.70;100.00;100442.22;4944585;28;20589;-69
2023/06/22 04:46:53;;;;;;;;;;;;;;;20.73;100.00;100439.25;4926529;28;20106;-70
2023/06/22 04:49:21;;;;;;;14.63;10.82;;;;;;;20.77;100.00;100443.41;4947105;28;19922;-70
2023/06/22 04:51:51;;;;;;;11.80;10.60;;;;;;;20.89;100.00;100431.53;4943911;28;20074;-71
2023/06/22 04:54:18;;;;;;;13.83;11.27;;;;;;;20.98;100.00;100438.75;4931875;29;20047;-70
2023/06/22 04:56:46;;;;;;;12.85;11.00;;;;;;;21.04;100.00;100442.75;4942428;28;20047;-70
2023/06/22 04:59:13;;;;;;;11.45;10.35;;;;;;;21.05;100.00;100431.84;4942381;28;20423;-70
2023/06/22 05:01:40;;;;;;;11.23;10.05;;;;;;;21.12;100.00;100426.75;4942098;28;20055;-70
2023/06/22 05:04:09;;;;;;;11.80;10.60;;;;;;;21.16;100.00;100420.97;4950153;28;20091;-70
2023/06/22 05:06:36;;;;;;;12.65;11.18;;;;;;;21.29;100.00;100436.88;4922215;29;20058;-71
2023/06/22 05:09:06;;;;;;;11.68;10.40;;;;;;;21.36;100.00;100427.25;4947464;28;20074;-70
2023/06/22 05:11:33;;;;;;;11.90;10.70;;;;;;;21.48;100.00;100428.81;4932653;28;20054;-70
2023/06/22 05:14:00;;;;;;;12.98;11.65;;;;;;;21.56;100.00;100426.28;4925872;29;20058;-70
2023/06/22 05:16:27;;;;;;;15.65;12.10;;;;;;;21.57;100.00;100413.63;4930698;28;20211;-70
2023/06/22 05:18:54;;;;;;;14.07;11.70;;;;;;;21.65;100.00;100416.50;4942380;28;20047;-70
2023/06/22 05:21:24;;;;;;;11.43;10.32;;;;;;;21.62;100.00;100414.06;4931585;28;20051;-70
2023/06/22 05:23:54;;;;;;;13.75;11.90;;;;;;;21.67;100.00;100423.44;4943048;28;20416;-72
2023/06/22 05:26:24;;;;;;;12.23;11.00;;;;;;;21.68;100.00;100410.81;4939448;28;20051;-71
2023/06/22 05:28:51;;;;;;;12.82;11.00;;;;;;;21.80;100.00;100427.69;4911539;29;20115;-71
2023/06/22 05:31:22;;;;;;;12.38;10.70;;;;;;;21.89;100.00;100426.81;4930404;29;20066;-71
2023/06/22 05:33:51;;;;;;;12.52;10.85;;;;;;;21.98;100.00;100407.94;4944324;28;20103;-71
2023/06/22 05:36:24;;;;;;;11.80;10.38;;;;;;;22.08;100.00;100410.66;4925441;29;20126;-71
2023/06/22 05:38:52;;;;;;;12.30;10.55;;;;;;;22.13;100.00;100411.06;4940667;28;20043;-71
2023/06/22 05:41:20;;;;;;;11.35;9.85;;;;;;;22.13;100.00;100413.75;4921523;28;20047;-70
2023/06/22 05:43:47;;;;;;;13.60;11.25;;;;;;;22.17;100.00;100406.25;4927938;28;20058;-79
2023/06/22 05:46:14;;;;;;;13.15;11.07;;;;;;;22.26;100.00;100408.03;4943856;28;20047;-77
2023/06/22 05:48:41;;;;;;;12.52;11.13;;;;;;;22.30;100.00;100404.91;4942265;29;20061;-78
2023/06/22 05:51:08;;;;;;;13.93;11.43;;;;;;;22.30;100.00;100402.22;4937800;28;20051;-76
2023/06/22 05:53:35;;;;;;;16.20;11.32;;;;;;;22.27;100.00;100393.56;4935129;28;20115;-77
2023/06/22 05:56:04;;;;;;;13.40;11.07;;;;;;;22.36;100.00;100403.47;4951379;28;20055;-76
2023/06/22 05:58:31;;;;;;;15.40;12.10;;;;;;;22.44;100.00;100414.38;4956749;28;20047;-78
2023/06/22 06:00:58;;;;;;;15.63;11.70;;;;;;;22.54;100.00;100415.19;4953634;28;20095;-78
2023/06/22 06:03:28;;;;;;;14.38;12.23;;;;;;;22.57;100.00;100403.25;4935735;28;20048;-77
2023/06/22 06:05:55;;;;;;;16.38;10.82;;;;;;;22.68;100.00;100409.28;4951052;28;20417;-76
2023/06/22 06:08:22;;;;;;;13.05;11.60;;;;;;;22.78;100.00;100406.59;4936585;28;20514;-71
2023/06/22 06:10:52;;;;;;;12.63;11.32;;;;;;;22.89;100.00;100408.25;4952275;28;20047;-70
2023/06/22 06:13:19;;;;;;;12.88;11.43;;;;;;;22.93;100.00;100410.50;4941677;28;20984;-70
2023/06/22 06:15:47;;;;;;;12.57;11.35;;;;;;;23.01;100.00;100401.63;4946967;28;20073;-70
2023/06/22 06:18:14;;;;;;;12.77;11.00;;;;;;;23.24;100.00;100402.06;4959962;28;20048;-72
2023/06/22 06:20:41;;;;;;;13.50;10.35;;;;;;;23.58;100.00;100407.66;4935387;28;20039;-72
2023/06/22 06:23:11;;;;;;;14.98;10.23;;;;;;;23.98;100.00;100390.91;4955579;28;20067;-71
2023/06/22 06:25:39;;;;;;;12.40;10.32;;;;;;;24.35;100.00;100387.97;4931740;28;20098;-72
2023/06/22 06:28:06;;;;;;;14.48;10.90;;;;;;;24.78;100.00;100382.41;4933616;28;20066;-71
2023/06/22 06:30:33;;;;;;;12.38;11.10;;;;;;;25.08;100.00;100391.00;4924369;28;20043;-70
2023/06/22 06:33:00;;;;;;;11.02;9.82;;;;;;;25.29;100.00;100377.84;4955388;28;20047;-71
2023/06/22 06:35:27;;;;;;;11.63;10.13;;;;;;;25.66;100.00;100381.94;4922022;28;20066;-70
2023/06/22 06:37:54;;;;;;;11.70;9.82;;;;;;;25.87;100.00;100376.84;4951246;28;20423;-70
2023/06/22 06:40:23;;;;;;;12.20;9.88;;;;;;;26.07;100.00;100382.78;4943781;28;20050;-71
2023/06/22 06:42:50;;;;;;;10.57;9.50;;;;;;;26.40;100.00;100394.44;4953551;28;20106;-70
2023/06/22 06:45:19;;;;;;;12.57;9.63;;;;;;;26.63;100.00;100379.06;4947269;28;20057;-71
2023/06/22 06:47:47;;;;;;;14.13;10.57;;;;;;;26.58;99.05;100386.91;4931196;29;20046;-72
2023/06/22 06:50:14;;;;;;;13.07;9.60;;;;;;;26.71;97.11;100389.06;4928319;28;20051;-71
2023/06/22 06:52:41;;;;;;;11.30;9.93;;;;;;;26.83;95.40;100377.63;4932859;28;20053;-71
2023/06/22 06:55:12;;;;;;;13.75;10.02;;;;;;;26.81;91.69;100381.53;4954434;28;20075;-71
2023/06/22 06:57:40;;;;;;;11.10;9.43;;;;;;;26.72;91.96;100378.03;4929820;29;20053;-72
2023/06/22 07:00:11;;;;;;;14.00;10.40;;;;;;;26.61;93.85;100364.81;4925328;28;20540;-70
2023/06/22 07:02:42;;;;;;;12.48;9.93;;;;;;;26.73;92.81;100373.44;4944507;28;20046;-71
2023/06/22 07:05:10;;;;;;;12.55;9.38;;;;;;;26.75;96.72;100372.25;4931732;28;20063;-71
2023/06/22 07:07:37;;;;;;;11.63;9.48;;;;;;;26.78;94.32;100381.88;4925114;28;20063;-71
2023/06/22 07:10:10;;;;;;;11.50;10.00;;;;;;;26.79;97.09;100381.72;4936016;29;21717;-71
2023/06/22 07:12:37;;;;;;;11.65;9.38;;;;;;;26.84;95.26;100371.16;4931325;28;20047;-70
2023/06/22 07:15:09;;;;;;;11.43;9.65;;;;;;;26.83;94.99;100374.91;4949644;28;20222;-71
2023/06/22 07:17:37;;;;;;;9.55;8.63;;;;;;;26.72;95.10;100375.31;4928915;29;20094;-71
2023/06/22 07:20:08;;;;;;;10.55;9.13;;;;;;;26.76;97.08;100364.94;4935876;29;20327;-71
2023/06/22 07:22:36;;;;;;;12.15;9.80;;;;;;;26.82;97.50;100362.34;4931353;28;20494;-70
2023/06/22 07:25:08;;;;;;;10.68;8.90;;;;;;;26.83;94.54;100365.91;4930618;28;20043;-71
2023/06/22 07:27:42;;;;;;;11.63;10.23;;;;;;;26.76;95.18;100356.78;4942396;28;20524;-72
2023/06/22 07:30:10;;;;;;;11.48;9.20;;;;;;;26.77;98.24;100358.47;4942158;28;20131;-71
2023/06/22 07:32:37;;;;;;;10.20;8.68;;;;;;;27.06;98.83;100363.28;4944117;28;20386;-70
2023/06/22 07:35:06;;;;;;;12.33;9.67;;;;;;;27.27;95.04;100359.91;4939864;28;20055;-72
2023/06/22 07:37:33;;;;;;;10.15;9.15;;;;;;;27.41;91.58;100357.25;4920947;29;20057;-70
2023/06/22 07:40:00;;;;;;;9.90;8.93;;;;;;;27.60;91.54;100355.94;4914878;29;20067;-71
2023/06/22 07:42:27;;;;;;;10.23;9.07;;;;;;;27.86;87.61;100344.66;4939431;28;20131;-70
2023/06/22 07:44:55;;;;;;;14.20;9.70;;;;;;;28.09;83.80;100340.00;4944503;28;20162;-72
2023/06/22 07:47:25;;;;;;;10.60;9.55;;;;;;;28.16;80.09;100340.94;4941253;28;20039;-71
2023/06/22 07:49:54;;;;;;;11.50;10.07;;;;;;;28.19;79.46;100331.56;4928021;28;20054;-70
2023/06/22 07:52:22;;;;;;;14.10;10.23;;;;;;;28.14;79.12;100343.00;4927380;28;20069;-70
2023/06/22 07:54:49;;;;;;;10.85;9.85;;;;;;;28.06;82.58;100329.47;4952058;28;20150;-70
2023/06/22 07:57:18;;;;;;;14.90;10.30;;;;;;;28.31;77.53;100334.69;4915431;29;20111;-70
2023/06/22 07:59:45;;;;;;;11.33;10.13;;;;;;;28.34;79.06;100334.28;4930578;29;20043;-70
2023/06/22 08:02:14;;;;;;;15.30;9.82;;;;;;;28.42;81.07;100336.94;4939924;28;20471;-71
2023/06/22 08:04:42;;;;;;;12.05;10.55;;;;;;;28.47;75.93;100337.22;4929355;29;20050;-71
2023/06/22 08:07:11;;;;;;;11.48;9.32;;;;;;;28.39;78.59;100335.41;4943532;28;20044;-71
2023/06/22 08:09:38;;;;;;;14.85;10.20;;;;;;;28.55;76.95;100318.88;4944474;29;20052;-71
2023/06/22 08:12:05;;;;;;;11.75;9.07;;;;;;;28.60;75.89;100323.75;4931146;29;20062;-71
2023/06/22 08:14:32;;;;;;;10.77;9.68;;;;;;;28.59;76.58;100325.63;4947387;28;20130;-71
2023/06/22 08:16:59;;;;;;;10.80;9.70;;;;;;;28.44;77.81;100332.97;4941887;28;21085;-70
2023/06/22 08:19:26;;;;;;;12.75;10.02;;;;;;;28.53;80.12;100326.38;4930237;29;20043;-70
2023/06/22 08:21:53;;;;;;;10.65;9.63;;;;;;;28.49;79.07;100319.63;4950142;28;20584;-71
2023/06/22 08:24:19;;;;;;;10.75;9.20;;;;;;;28.61;78.31;100315.41;4947550;28;20050;-70
2023/06/22 08:26:47;;;;;;;10.88;9.77;;;;;;;28.92;75.47;100314.31;4937940;28;20039;-72
2023/06/22 08:29:15;;;;;;;12.32;10.25;;;;;;;29.18;72.25;100322.78;4933607;29;20055;-71
2023/06/22 08:31:42;;;;;;;10.77;9.68;;;;;;;29.25;72.29;100311.94;4950090;28;20110;-71
2023/06/22 08:34:12;;;;;;;10.32;9.43;;;;;;;29.35;70.92;100304.28;4950600;28;20043;-71
2023/06/22 08:36:48;;;;;;;12.98;10.48;;;;;;;29.51;69.86;100309.47;4926260;28;20406;-71
2023/06/22 08:39:15;;;;;;;11.23;9.68;;;;;;;29.45;68.07;100309.41;4950763;28;20071;-70
2023/06/22 08:41:42;;;;;;;12.43;10.00;;;;;;;29.23;72.84;100294.94;4950019;28;20055;-71
2023/06/22 08:44:09;;;;;;;10.48;9.43;;;;;;;29.34;71.14;100291.66;4931103;28;20610;-70
2023/06/22 08:46:36;;;;;;;11.00;9.88;;;;;;;29.43;68.43;100296.00;4923228;28;20506;-70
2023/06/22 08:49:04;;;;;;;10.60;9.60;;;;;;;29.42;71.86;100283.41;4943119;28;20047;-70
2023/06/22 08:51:32;;;;;;;10.32;9.23;;;;;;;29.60;69.56;100297.38;4948425;28;20073;-70
2023/06/22 08:53:59;;;;;;;11.73;9.05;;;;;;;29.79;67.25;100300.44;4948237;28;20043;-71
2023/06/22 08:56:26;;;;;;;11.65;9.50;;;;;;;29.85;67.79;100292.31;4946816;28;20055;-71
2023/06/22 08:58:52;;;;;;;11.85;9.63;;;;;;;29.92;66.33;100282.28;4942147;28;20067;-71
2023/06/22 09:01:21;;;;;;;9.88;8.90;;;;;;;29.96;65.89;100278.13;4949259;28;20510;-71
2023/06/22 09:03:54;;;;;;;11.20;9.63;;;;;;;29.89;67.09;100279.97;4934965;28;20055;-70
2023/06/22 09:06:22;;;;;;;10.40;9.40;;;;;;;29.88;64.68;100271.97;4930218;28;20114;-70
2023/06/22 09:08:50;;;;;;;10.45;9.40;;;;;;;29.88;66.50;100282.91;4916635;29;20043;-70
2023/06/22 09:11:18;;;;;;;10.02;9.13;;;;;;;29.93;65.30;100280.38;4931684;28;20169;-70
2023/06/22 09:13:47;;;;;;;13.38;9.48;;;;;;;30.05;64.63;100281.56;4949310;28;20520;-70
2023/06/22 09:16:17;;;;;;;13.00;10.43;;;;;;;30.07;65.74;100290.38;4945556;28;20567;-70
2023/06/22 09:18:47;;;;;;;10.55;9.40;;;;;;;30.13;65.49;100284.13;4939402;28;20041;-72
2023/06/22 09:21:13;;;;;;;;;;;;;;;30.26;62.62;100277.88;4935643;29;20122;-70
2023/06/22 09:23:40;;;;;;;10.95;9.77;;;;;;;30.17;62.45;100270.91;4953872;29;19973;-71
2023/06/22 09:26:08;;;;;;;11.63;9.95;;;;;;;30.22;62.91;100269.25;4936735;29;20564;-71
2023/06/22 09:28:36;;;;;;;11.17;10.00;;;;;;;30.28;62.43;100257.53;4948243;28;20126;-72
2023/06/22 09:31:03;;;;;;;11.32;9.98;;;;;;;30.35;62.99;100272.06;4951767;28;20488;-70
2023/06/22 09:33:29;;;;;;;11.18;9.57;;;;;;;30.40;62.59;100260.50;4938458;28;20099;-72
2023/06/22 09:35:56;;;;;;;10.82;9.68;;;;;;;30.36;61.92;100264.72;4952880;28;20425;-72
2023/06/22 09:38:25;;;;;;;12.70;10.00;;;;;;;30.24;61.31;100252.66;4946612;28;20055;-73
2023/06/22 09:40:52;;;;;;;10.02;9.02;;;;;;;30.08;62.38;100240.19;4935553;29;20078;-72
2023/06/22 09:43:19;;;;;;;10.20;9.15;;;;;;;30.06;61.32;100239.56;4925880;28;20047;-71
2023/06/22 09:45:46;;;;;;;10.85;9.82;;;;;;;29.97;60.29;100230.69;4935491;29;20054;-72
2023/06/22 09:48:13;;;;;;;10.90;9.80;;;;;;;29.77;62.21;100232.41;4948119;28;20061;-73
2023/06/22 09:50:40;;;;;;;10.75;9.75;;;;;;;29.65;64.32;100223.94;4952582;28;20079;-70
2023/06/22 09:53:06;;;;;;;11.13;9.45;;;;;;;29.83;63.44;100233.50;4949893;28;20129;-70
2023/06/22 09:55:34;;;;;;;10.90;9.75;;;;;;;30.01;62.31;100212.03;4949371;28;21204;-71
2023/06/22 09:58:03;;;;;;;10.18;9.18;;;;;;;30.41;60.93;100231.28;4942744;28;20131;-71
2023/06/22 10:00:29;;;;;;;11.70;9.38;;;;;;;30.51;60.38;100220.84;4928842;29;20417;-71
2023/06/22 10:03:01;;;;;;;10.63;9.52;;;;;;;30.38;58.82;100229.81;4953485;28;20047;-71
2023/06/22 10:05:28;;;;;;;10.07;9.18;;;;;;;30.35;60.05;100211.97;4941263;28;20074;-71
2023/06/22 10:07:55;;;;;;;10.23;9.25;;;;;;;30.49;58.31;100222.94;4938242;28;20158;-72
2023/06/22 10:10:22;;;;;;;10.65;9.55;;;;;;;30.77;58.96;100222.81;4940801;28;20148;-70
2023/06/22 10:12:56;;;;;;;9.95;8.95;;;;;;;31.15;58.23;100209.44;4956529;28;20039;-71
2023/06/22 10:15:26;;;;;;;9.48;8.25;;;;;;;31.29;56.67;100205.66;4954563;28;20058;-72
2023/06/22 10:17:54;;;;;;;8.57;7.35;;;;;;;31.32;50.24;100192.41;4945777;29;20082;-72
2023/06/22 10:20:22;;;;;;;9.73;7.10;;;;;;;31.40;47.82;100191.31;4928253;29;20051;-71
2023/06/22 10:22:49;;;;;;;8.23;7.43;;;;;;;31.50;47.51;100185.41;4953900;28;20047;-70
2023/06/22 10:25:16;;;;;;;7.95;7.15;;;;;;;31.39;47.57;100179.53;4939381;29;20138;-71
2023/06/22 10:27:44;;;;;;;8.38;7.53;;;;;;;31.13;48.33;100178.72;4936046;28;20040;-71
2023/06/22 10:30:13;;;;;;;9.70;7.60;;;;;;;30.97;49.09;100179.94;4954954;28;20133;-71
2023/06/22 10:32:45;;;;;;;10.35;7.70;;;;;;;30.92;49.15;100169.63;4941887;29;20095;-70
2023/06/22 10:35:13;;;;;;;9.52;7.53;;;;;;;31.04;48.37;100170.69;4938383;29;20059;-70
2023/06/22 10:37:42;;;;;;;8.95;7.95;;;;;;;31.17;47.61;100163.59;4932632;29;20079;-70
2023/06/22 10:40:11;;;;;;;8.60;7.70;;;;;;;31.20;47.17;100149.47;4932680;28;20147;-71
2023/06/22 10:42:37;;;;;;;8.25;7.20;;;;;;;31.27;47.64;100159.34;4949861;28;20054;-70
2023/06/22 10:45:05;;;;;;;7.88;7.07;;;;;;;31.33;46.87;100143.97;4917539;28;20039;-71
2023/06/22 10:47:34;;;;;;;14.60;7.55;;;;;;;31.23;46.69;100141.69;4927818;29;20048;-70
2023/06/22 10:50:01;;;;;;;8.35;6.78;;;;;;;31.24;47.21;100132.41;4950836;28;20067;-71
2023/06/22 10:52:29;;;;;;;8.60;7.05;;;;;;;31.30;46.06;100134.31;4938968;28;20426;-70
2023/06/22 10:54:57;;;;;;;7.70;6.85;;;;;;;31.36;46.15;100122.50;4952071;28;20102;-70
2023/06/22 10:57:25;;;;;;;8.98;7.13;;;;;;;31.31;45.82;100092.22;4944770;28;20129;-70
2023/06/22 10:59:52;;;;;;;7.75;7.05;;;;;;;31.59;45.76;100102.88;4927710;28;20111;-69
2023/06/22 11:02:21;;;;;;;8.38;7.55;;;;;;;31.79;45.04;100102.00;4925179;28;20066;-71
2023/06/22 11:04:49;;;;;;;8.00;6.88;;;;;;;31.85;44.90;100096.47;4933055;29;20054;-71
2023/06/22 11:07:16;;;;;;;7.25;6.40;;;;;;;31.89;44.61;100085.94;4927606;28;20062;-70
2023/06/22 11:09:43;;;;;;;8.48;6.93;;;;;;;31.78;44.37;100076.50;4911740;28;20113;-69
2023/06/22 11:12:11;;;;;;;7.72;6.93;;;;;;;31.71;45.74;100081.16;4933396;29;20123;-71
2023/06/22 11:14:39;;;;;;;8.38;7.18;;;;;;;31.69;45.38;100070.44;4948327;28;20126;-70
2023/06/22 11:17:06;;;;;;;7.60;6.88;;;;;;;31.82;44.89;100068.69;4943935;28;20134;-71